Time;durP1;ratioP1;P1;durP2;ratioP2;P2;SDS_P1;SDS_P2;PMS_P1;PMS_P2;Temp;Humidity;BMP_temperature;BMP_pressure;BME280_temperature;BME280_humidity;BME280_pressure;Samples;Min_cycle;Max_cycle;Signal;HPM_P1;HPM_P2
2021/04/09 00:00:12;;;;;;;1999.90;999.90;;;4.60;82.50;;;;;;5068584;28;20071;-71
2021/04/09 00:02:39;;;;;;;1999.90;999.90;;;4.60;84.20;;;;;;5066357;28;20049;-71
2021/04/09 00:05:10;;;;;;;1999.90;999.90;;;4.60;85.20;;;;;;5066038;28;20045;-71
2021/04/09 00:07:37;;;;;;;1999.90;999.90;;;4.60;84.70;;;;;;5064208;28;20046;-71
2021/04/09 00:10:08;;;;;;;1999.90;999.90;;;4.60;85.60;;;;;;5062899;28;20052;-71
2021/04/09 00:12:35;;;;;;;1999.90;999.90;;;4.60;85.70;;;;;;5068900;28;20135;-71
2021/04/09 00:15:04;;;;;;;1999.90;999.90;;;4.60;84.20;;;;;;5067033;28;20040;-71
2021/04/09 00:17:30;;;;;;;1999.90;999.90;;;4.60;86.20;;;;;;5067419;28;20067;-71
2021/04/09 00:19:57;;;;;;;1999.90;999.90;;;4.60;85.30;;;;;;5068005;28;20044;-71
2021/04/09 00:22:23;;;;;;;1999.90;999.90;;;4.60;85.10;;;;;;5067618;28;20448;-71
2021/04/09 00:24:50;;;;;;;1999.90;999.90;;;4.60;86.00;;;;;;5069474;28;20041;-71
2021/04/09 00:27:17;;;;;;;1999.90;999.90;;;4.60;85.10;;;;;;5062702;28;20051;-71
2021/04/09 00:29:44;;;;;;;1999.90;999.90;;;4.60;85.30;;;;;;5066057;28;20133;-71
2021/04/09 00:32:10;;;;;;;1999.90;999.90;;;4.60;85.30;;;;;;5061858;28;20059;-71
2021/04/09 00:34:37;;;;;;;1999.90;999.90;;;4.60;84.70;;;;;;5068430;28;20044;-71
2021/04/09 00:37:03;;;;;;;1999.90;999.90;;;4.60;84.20;;;;;;5064994;28;20063;-71
2021/04/09 00:39:30;;;;;;;1999.90;999.90;;;4.60;84.20;;;;;;5062148;28;20561;-71
2021/04/09 00:41:56;;;;;;;1999.90;999.90;;;4.60;84.20;;;;;;5065508;28;20048;-71
2021/04/09 00:44:22;;;;;;;1999.90;999.90;;;4.60;85.00;;;;;;5065818;28;20045;-71
2021/04/09 00:46:48;;;;;;;1999.90;999.90;;;4.60;84.60;;;;;;5067247;28;20135;-71
2021/04/09 00:49:15;;;;;;;1999.90;999.90;;;4.70;84.20;;;;;;5068262;28;20052;-71
2021/04/09 00:51:41;;;;;;;1999.90;999.90;;;4.70;85.70;;;;;;5068814;28;20147;-72
2021/04/09 00:54:08;;;;;;;1999.90;999.90;;;4.70;85.40;;;;;;5067642;28;20418;-71
2021/04/09 00:56:35;;;;;;;1999.90;999.90;;;4.70;85.30;;;;;;5062772;28;20515;-71
2021/04/09 00:59:03;;;;;;;1999.90;999.90;;;4.70;84.40;;;;;;5066631;28;20045;-71
2021/04/09 01:01:29;;;;;;;1999.90;999.90;;;4.70;84.60;;;;;;5065876;28;20049;-71
2021/04/09 01:03:56;;;;;;;1999.90;999.90;;;4.80;84.20;;;;;;5067562;28;20078;-71
2021/04/09 01:06:23;;;;;;;1999.90;999.90;;;4.80;84.90;;;;;;5064650;28;20132;-71
2021/04/09 01:08:51;;;;;;;1999.90;999.90;;;4.80;84.60;;;;;;5058672;28;20044;-71
2021/04/09 01:11:18;;;;;;;1999.90;999.90;;;4.80;85.70;;;;;;5064702;28;20100;-71
2021/04/09 01:13:45;;;;;;;1999.90;999.90;;;4.80;85.40;;;;;;5063210;28;20048;-71
2021/04/09 01:16:39;;;;;;;1999.90;999.90;;;4.90;85.80;;;;;;5060622;28;20056;-71
2021/04/09 01:19:25;;;;;;;1999.90;999.90;;;4.90;86.60;;;;;;5063398;28;20056;-71
2021/04/09 01:21:57;;;;;;;1999.90;999.90;;;5.00;87.10;;;;;;5067400;28;20049;-71
2021/04/09 01:24:41;;;;;;;1999.90;999.90;;;5.10;86.90;;;;;;5066938;28;20062;-71
2021/04/09 01:27:13;;;;;;;1999.90;999.90;;;5.10;87.20;;;;;;5065855;28;20037;-71
2021/04/09 01:30:00;;;;;;;1999.90;999.90;;;5.20;86.60;;;;;;5062726;28;20048;-71
2021/04/09 01:32:28;;;;;;;1999.90;999.90;;;5.30;86.50;;;;;;5060306;28;20040;-71
2021/04/09 01:50:30;;;;;;;1999.90;999.90;;;5.20;86.70;;;;;;5064436;28;20087;-71
2021/04/09 01:52:57;;;;;;;1999.90;999.90;;;5.10;87.30;;;;;;5061870;28;20155;-71
2021/04/09 01:55:24;;;;;;;1999.90;999.90;;;5.00;86.30;;;;;;5065373;28;20471;-71
2021/04/09 01:57:52;;;;;;;1999.90;999.90;;;5.00;86.00;;;;;;5068095;28;20045;-71
2021/04/09 02:00:21;;;;;;;1999.90;999.90;;;5.00;86.00;;;;;;5064888;28;20053;-71
2021/04/09 02:02:50;;;;;;;1999.90;999.90;;;5.00;86.00;;;;;;5062850;28;20396;-70
2021/04/09 02:05:18;;;;;;;;;;;5.00;86.70;;;;;;5063569;28;20043;-71
2021/04/09 02:07:46;;;;;;;1999.90;999.90;;;5.00;89.50;;;;;;5063223;28;19921;-71
2021/04/09 02:10:13;;;;;;;1999.90;999.90;;;5.00;86.70;;;;;;5066596;28;20086;-71
2021/04/09 02:12:42;;;;;;;1999.90;999.90;;;5.00;86.70;;;;;;5063293;28;20045;-70
2021/04/09 02:15:10;;;;;;;1999.90;999.90;;;5.00;86.30;;;;;;5064404;28;20060;-71
2021/04/09 02:17:37;;;;;;;1999.90;999.90;;;5.00;86.20;;;;;;5065040;28;20131;-70
2021/04/09 02:20:18;;;;;;;1999.90;999.90;;;5.00;86.60;;;;;;5066549;28;20045;-71
2021/04/09 02:22:46;;;;;;;1999.90;999.90;;;4.90;86.50;;;;;;5066334;28;20049;-71
2021/04/09 02:25:15;;;;;;;1999.90;999.90;;;4.90;86.50;;;;;;5065892;28;20072;-71
2021/04/09 02:27:44;;;;;;;1999.90;999.90;;;4.90;86.40;;;;;;5060515;28;20303;-71
2021/04/09 02:30:12;;;;;;;1999.90;999.90;;;4.90;86.70;;;;;;5062042;28;20123;-71
2021/04/09 02:32:38;;;;;;;1999.90;999.90;;;4.90;87.10;;;;;;5065950;28;20054;-71
2021/04/09 02:35:06;;;;;;;1999.90;999.90;;;4.90;87.40;;;;;;5066977;28;20049;-71
2021/04/09 02:37:34;;;;;;;1999.90;999.90;;;4.90;86.70;;;;;;5066324;28;20128;-71
2021/04/09 02:40:07;;;;;;;1999.90;999.90;;;4.90;86.30;;;;;;5064633;28;20179;-71
2021/04/09 02:42:34;;;;;;;1999.90;999.90;;;4.90;86.20;;;;;;5060675;28;20425;-71
2021/04/09 02:45:01;;;;;;;1999.90;999.90;;;4.90;86.00;;;;;;5067391;28;20485;-71
2021/04/09 02:47:30;;;;;;;1999.90;999.90;;;4.90;86.30;;;;;;5071094;28;20472;-71
2021/04/09 02:50:11;;;;;;;1999.90;999.90;;;4.90;86.60;;;;;;5069180;28;20051;-71
2021/04/09 02:52:59;;;;;;;1999.90;999.90;;;4.80;88.80;;;;;;5070103;28;20139;-71
2021/04/09 02:55:33;;;;;;;1999.90;999.90;;;4.80;88.50;;;;;;5069680;28;20048;-71
2021/04/09 02:58:06;;;;;;;1999.90;999.90;;;4.90;89.00;;;;;;5066473;28;20060;-71
2021/04/09 03:00:36;;;;;;;1999.90;999.90;;;4.90;88.60;;;;;;5070183;28;20496;-71
2021/04/09 03:03:05;;;;;;;1999.90;999.90;;;4.90;88.10;;;;;;5061449;28;20045;-71
2021/04/09 03:05:31;;;;;;;1999.90;999.90;;;4.90;88.80;;;;;;5067180;28;20570;-71
2021/04/09 03:07:59;;;;;;;1999.90;999.90;;;4.90;89.10;;;;;;5067337;28;20058;-71
2021/04/09 03:10:26;;;;;;;1999.90;999.90;;;5.00;87.80;;;;;;5066400;28;20055;-71
2021/04/09 03:12:52;;;;;;;1999.90;999.90;;;4.90;88.60;;;;;;5066124;28;20259;-72
2021/04/09 03:15:26;;;;;;;1999.90;999.90;;;4.90;88.90;;;;;;5060343;28;20051;-72
2021/04/09 03:18:03;;;;;;;1999.90;999.90;;;5.00;89.00;;;;;;5061689;28;20046;-71
2021/04/09 03:20:30;;;;;;;1999.90;999.90;;;5.00;88.70;;;;;;5059578;28;20063;-71
2021/04/09 03:22:56;;;;;;;1999.90;999.90;;;5.00;89.80;;;;;;5058638;28;20063;-71
2021/04/09 03:25:22;;;;;;;1999.90;999.90;;;5.00;88.90;;;;;;5059752;28;20504;-71
2021/04/09 03:27:52;;;;;;;1999.90;999.90;;;5.00;89.70;;;;;;5060401;28;20044;-71
2021/04/09 03:30:20;;;;;;;1999.90;999.90;;;5.00;89.60;;;;;;5060480;28;20168;-70
2021/04/09 03:32:48;;;;;;;1999.90;999.90;;;5.00;89.10;;;;;;5057346;28;20041;-71
2021/04/09 03:35:16;;;;;;;1999.90;999.90;;;5.00;89.60;;;;;;5058630;28;20451;-71
2021/04/09 03:37:43;;;;;;;1999.90;999.90;;;5.00;89.60;;;;;;5061699;28;20052;-71
2021/04/09 03:40:10;;;;;;;1999.90;999.90;;;5.00;89.00;;;;;;5060444;28;20476;-71
2021/04/09 03:42:37;;;;;;;1999.90;999.90;;;5.00;88.30;;;;;;5058718;28;20049;-71
2021/04/09 03:45:05;;;;;;;1999.90;999.90;;;5.00;87.90;;;;;;5060112;28;20063;-71
2021/04/09 03:47:32;;;;;;;1999.90;999.90;;;5.00;88.80;;;;;;5060115;28;20123;-71
2021/04/09 03:49:58;;;;;;;1999.90;999.90;;;4.90;89.60;;;;;;5060873;28;20539;-71
2021/04/09 03:52:24;;;;;;;1999.90;999.90;;;4.90;88.90;;;;;;5060239;28;20491;-71
2021/04/09 03:54:50;;;;;;;1999.90;999.90;;;4.90;90.00;;;;;;5058453;28;20089;-71
2021/04/09 03:57:18;;;;;;;1999.90;999.90;;;4.90;89.90;;;;;;5058283;28;20124;-71
2021/04/09 03:59:44;;;;;;;1999.90;999.90;;;4.90;89.60;;;;;;5058424;28;20222;-71
2021/04/09 04:02:10;;;;;;;1999.90;999.90;;;4.90;89.60;;;;;;5060122;28;20449;-71
2021/04/09 04:04:36;;;;;;;1999.90;999.90;;;5.00;89.80;;;;;;5057169;28;20044;-71
2021/04/09 04:07:04;;;;;;;1999.90;999.90;;;5.00;89.50;;;;;;5059161;28;20699;-71
2021/04/09 04:09:30;;;;;;;1999.90;999.90;;;5.00;90.00;;;;;;5060446;28;20135;-71
2021/04/09 04:11:58;;;;;;;1999.90;999.90;;;5.00;90.00;;;;;;5058642;28;20138;-71
2021/04/09 04:14:24;;;;;;;1999.90;999.90;;;5.00;90.10;;;;;;5060431;28;20040;-71
2021/04/09 04:16:50;;;;;;;1999.90;999.90;;;5.00;90.00;;;;;;5059443;28;20055;-71
2021/04/09 04:19:17;;;;;;;1999.90;999.90;;;5.00;90.50;;;;;;5059542;28;20408;-71
2021/04/09 04:21:44;;;;;;;1999.90;999.90;;;5.00;90.40;;;;;;5058338;28;20071;-71
2021/04/09 04:24:11;;;;;;;1999.90;999.90;;;5.10;90.30;;;;;;5061065;28;20402;-71
2021/04/09 04:26:38;;;;;;;1999.90;999.90;;;5.10;90.80;;;;;;5059795;28;20047;-71
2021/04/09 04:29:04;;;;;;;1999.90;999.90;;;5.10;90.80;;;;;;5054889;28;20110;-71
2021/04/09 04:31:30;;;;;;;1999.90;999.90;;;5.10;90.40;;;;;;5051337;28;20509;-71
2021/04/09 04:33:57;;;;;;;1999.90;999.90;;;5.10;90.60;;;;;;5054722;28;20048;-71
2021/04/09 04:36:23;;;;;;;1999.90;999.90;;;5.10;90.80;;;;;;5055985;28;20132;-71
2021/04/09 04:38:49;;;;;;;1999.90;999.90;;;5.10;90.30;;;;;;5057948;28;20041;-71
2021/04/09 04:41:17;;;;;;;1999.90;999.90;;;5.10;90.30;;;;;;5052555;28;20476;-71
2021/04/09 04:43:44;;;;;;;1999.90;999.90;;;5.10;90.30;;;;;;5058233;28;20106;-71
2021/04/09 04:46:10;;;;;;;1999.90;999.90;;;5.10;90.90;;;;;;5067217;28;20547;-70
2021/04/09 04:48:37;;;;;;;1999.90;999.90;;;5.10;90.60;;;;;;5060124;28;20532;-71
2021/04/09 04:51:04;;;;;;;1999.90;999.90;;;5.10;91.00;;;;;;5058795;28;20128;-71
2021/04/09 04:53:30;;;;;;;1999.90;999.90;;;5.00;91.10;;;;;;5067520;28;20044;-71
2021/04/09 04:55:57;;;;;;;1999.90;999.90;;;5.00;91.10;;;;;;5065575;28;20340;-71
2021/04/09 04:58:24;;;;;;;1999.90;999.90;;;5.00;91.00;;;;;;5065416;28;20051;-71
2021/04/09 05:00:50;;;;;;;1999.90;999.90;;;5.00;91.30;;;;;;5065940;28;20079;-71
2021/04/09 05:03:17;;;;;;;1999.90;999.90;;;5.00;91.20;;;;;;5066396;28;20473;-71
2021/04/09 05:05:44;;;;;;;1999.90;999.90;;;5.00;90.90;;;;;;5063565;28;20147;-71
2021/04/09 05:08:11;;;;;;;1999.90;999.90;;;5.00;90.80;;;;;;5061914;28;20049;-71
2021/04/09 05:10:37;;;;;;;1999.90;999.90;;;4.90;91.60;;;;;;5063948;28;20120;-71
2021/04/09 05:13:03;;;;;;;1999.90;999.90;;;4.90;91.40;;;;;;5061813;28;20445;-71
2021/04/09 05:15:30;;;;;;;1999.90;999.90;;;4.90;91.30;;;;;;5063941;28;20080;-71
2021/04/09 05:17:56;;;;;;;1999.90;999.90;;;4.90;91.30;;;;;;5063229;28;20143;-71
2021/04/09 05:20:25;;;;;;;1999.90;999.90;;;4.90;91.20;;;;;;5071384;28;20132;-71
2021/04/09 05:22:52;;;;;;;1999.90;999.90;;;4.80;91.50;;;;;;5067490;28;20225;-71
2021/04/09 05:25:18;;;;;;;1999.90;999.90;;;4.80;91.60;;;;;;5065414;28;20075;-71
2021/04/09 05:27:48;;;;;;;1999.90;999.90;;;4.80;92.00;;;;;;5061395;28;20076;-71
2021/04/09 05:30:16;;;;;;;1999.90;999.90;;;4.80;91.90;;;;;;5060328;28;20047;-71
2021/04/09 05:32:42;;;;;;;1999.90;999.90;;;4.80;92.60;;;;;;5065496;28;20048;-71
2021/04/09 05:35:09;;;;;;;1999.90;999.90;;;4.80;92.30;;;;;;5055661;28;20136;-71
2021/04/09 05:37:36;;;;;;;1999.90;999.90;;;4.80;91.70;;;;;;5064376;28;20059;-71
2021/04/09 05:40:03;;;;;;;1999.90;999.90;;;4.80;91.70;;;;;;5060082;28;20107;-71
2021/04/09 05:42:29;;;;;;;1999.90;999.90;;;4.80;91.90;;;;;;5062770;28;20091;-71
2021/04/09 05:44:55;;;;;;;1999.90;999.90;;;4.90;91.90;;;;;;5062406;28;20431;-71
2021/04/09 05:47:25;;;;;;;1999.90;999.90;;;4.90;91.80;;;;;;5067197;28;20399;-71
2021/04/09 05:49:51;;;;;;;1999.90;999.90;;;4.90;92.10;;;;;;5065722;28;20563;-71
2021/04/09 05:52:18;;;;;;;1999.90;999.90;;;4.90;92.10;;;;;;5064048;28;20456;-71
2021/04/09 05:54:44;;;;;;;1999.90;999.90;;;5.00;91.70;;;;;;5065889;28;20080;-71
2021/04/09 05:57:10;;;;;;;1999.90;999.90;;;5.00;91.80;;;;;;5058607;28;20484;-71
2021/04/09 05:59:37;;;;;;;1999.90;999.90;;;5.10;92.00;;;;;;5058514;28;20095;-71
2021/04/09 06:02:03;;;;;;;1999.90;999.90;;;5.10;92.40;;;;;;5055163;28;20041;-71
2021/04/09 06:04:30;;;;;;;1999.90;999.90;;;5.20;92.70;;;;;;5066270;28;20048;-71
2021/04/09 06:06:56;;;;;;;1999.90;999.90;;;5.30;92.30;;;;;;5053859;28;20041;-71
2021/04/09 06:09:25;;;;;;;1999.90;999.90;;;5.30;92.50;;;;;;5054321;28;20490;-71
2021/04/09 06:11:51;;;;;;;1999.90;999.90;;;5.30;92.90;;;;;;5051051;28;20049;-71
2021/04/09 06:14:18;;;;;;;1999.90;999.90;;;5.30;93.00;;;;;;5081330;28;20410;-71
2021/04/09 06:16:45;;;;;;;1999.90;999.90;;;5.40;92.80;;;;;;5055609;28;20056;-71
2021/04/09 06:19:11;;;;;;;1999.90;999.90;;;5.40;92.60;;;;;;5058386;28;20056;-71
2021/04/09 06:21:37;;;;;;;1999.90;999.90;;;5.40;92.50;;;;;;5048338;28;20045;-71
2021/04/09 06:24:04;;;;;;;1999.90;999.90;;;5.50;92.20;;;;;;5065727;28;20045;-71
2021/04/09 06:26:33;;;;;;;1999.90;999.90;;;5.50;92.20;;;;;;5057929;28;20059;-71
2021/04/09 06:28:59;;;;;;;1999.90;999.90;;;5.60;92.30;;;;;;5058580;28;20369;-71
2021/04/09 06:31:25;;;;;;;1999.90;999.90;;;5.60;92.50;;;;;;5061493;28;20071;-71
2021/04/09 06:33:55;;;;;;;1999.90;999.90;;;5.60;92.70;;;;;;5067621;28;20049;-70
2021/04/09 06:36:21;;;;;;;1999.90;999.90;;;5.70;92.50;;;;;;5060033;28;20135;-71
2021/04/09 06:38:47;;;;;;;1999.90;999.90;;;5.80;92.40;;;;;;5055809;28;20152;-71
2021/04/09 06:41:13;;;;;;;1999.90;999.90;;;5.80;92.40;;;;;;5056221;28;20040;-71
2021/04/09 06:43:40;;;;;;;1999.90;999.90;;;5.90;92.50;;;;;;5059477;28;20041;-71
2021/04/09 06:46:06;;;;;;;1999.90;999.90;;;6.00;93.20;;;;;;5057352;28;20058;-70
2021/04/09 06:48:33;;;;;;;1999.90;999.90;;;6.00;92.90;;;;;;5058391;28;20044;-71
2021/04/09 06:51:00;;;;;;;1999.90;999.90;;;6.10;93.40;;;;;;5059261;28;20049;-71
2021/04/09 06:53:28;;;;;;;1999.90;999.90;;;6.10;93.30;;;;;;5057967;28;23189;-70
2021/04/09 06:55:55;;;;;;;1999.90;999.90;;;6.20;93.00;;;;;;5056737;28;20132;-71
2021/04/09 06:58:24;;;;;;;1999.90;999.90;;;6.20;94.50;;;;;;5052612;28;20056;-70
2021/04/09 07:00:52;;;;;;;1999.90;999.90;;;6.20;94.20;;;;;;5057202;28;20307;-71
2021/04/09 07:03:19;;;;;;;1999.90;999.90;;;6.30;94.20;;;;;;5058878;28;20140;-71
2021/04/09 07:05:45;;;;;;;1999.90;999.90;;;6.40;94.80;;;;;;5060696;28;20131;-70
2021/04/09 07:08:11;;;;;;;1999.90;999.90;;;6.50;94.70;;;;;;5056651;28;20041;-70
2021/04/09 07:10:38;;;;;;;1999.90;999.90;;;6.60;94.40;;;;;;5050277;28;20048;-70
2021/04/09 07:13:09;;;;;;;1999.90;999.90;;;6.70;94.40;;;;;;5054157;28;20064;-70
2021/04/09 07:15:37;;;;;;;1999.90;999.90;;;6.80;95.40;;;;;;5057595;28;20056;-70
2021/04/09 07:18:06;;;;;;;1999.90;999.90;;;6.90;95.00;;;;;;5057701;28;20048;-71
2021/04/09 07:20:33;;;;;;;1999.90;999.90;;;6.90;95.00;;;;;;5059969;28;20036;-71
2021/04/09 07:23:02;;;;;;;1999.90;999.90;;;7.00;95.10;;;;;;5058943;28;20048;-71
2021/04/09 07:25:41;;;;;;;1999.90;999.90;;;7.00;95.10;;;;;;5060269;28;20057;-71
2021/04/09 07:28:11;;;;;;;1999.90;999.90;;;7.10;94.90;;;;;;5059303;28;20063;-71
2021/04/09 07:30:40;;;;;;;1999.90;999.90;;;7.10;95.10;;;;;;5058714;28;20041;-71
2021/04/09 07:33:11;;;;;;;1999.90;999.90;;;7.20;95.20;;;;;;5062079;28;20060;-71
2021/04/09 07:35:46;;;;;;;1999.90;999.90;;;7.20;95.10;;;;;;5064929;28;20061;-70
2021/04/09 07:38:28;;;;;;;1999.90;999.90;;;7.20;95.30;;;;;;5060235;28;20041;-71
2021/04/09 07:40:55;;;;;;;1999.90;999.90;;;7.20;95.70;;;;;;5063177;28;20046;-71
2021/04/09 07:43:23;;;;;;;1999.90;999.90;;;7.30;95.70;;;;;;5061031;28;20178;-71
2021/04/09 07:45:54;;;;;;;1999.90;999.90;;;7.30;95.30;;;;;;5062331;28;20052;-71
2021/04/09 07:48:30;;;;;;;1999.90;999.90;;;7.30;95.40;;;;;;5064481;28;20486;-70
2021/04/09 07:50:57;;;;;;;1999.90;999.90;;;7.30;96.20;;;;;;5064456;28;20054;-71
2021/04/09 07:53:29;;;;;;;1999.90;999.90;;;7.30;95.90;;;;;;5062606;28;20058;-71
2021/04/09 07:56:07;;;;;;;1999.90;999.90;;;7.40;96.10;;;;;;5062304;28;20044;-71
2021/04/09 07:58:34;;;;;;;1999.90;999.90;;;7.40;96.70;;;;;;5063462;28;20093;-71
2021/04/09 08:01:01;;;;;;;1999.90;999.90;;;7.50;95.70;;;;;;5064237;28;20048;-71
2021/04/09 08:03:39;;;;;;;1999.90;999.90;;;7.60;96.00;;;;;;5064340;28;20047;-70
2021/04/09 08:06:17;;;;;;;1999.90;999.90;;;7.60;96.00;;;;;;5064280;28;20057;-71
2021/04/09 08:08:46;;;;;;;1999.90;999.90;;;7.60;96.00;;;;;;5062813;28;20048;-70
2021/04/09 08:11:34;;;;;;;1999.90;999.90;;;7.60;96.20;;;;;;5063256;28;20059;-70
2021/04/09 08:14:14;;;;;;;1999.90;999.90;;;7.70;96.40;;;;;;5063265;28;20460;-71
2021/04/09 08:16:49;;;;;;;1999.90;999.90;;;7.90;96.80;;;;;;5063329;28;20071;-71
2021/04/09 08:19:21;;;;;;;1999.90;999.90;;;7.90;96.70;;;;;;5063394;28;20040;-71
2021/04/09 08:21:54;;;;;;;1999.90;999.90;;;8.00;97.20;;;;;;5061467;28;20132;-70
2021/04/09 08:24:22;;;;;;;1999.90;999.90;;;8.00;96.90;;;;;;5062987;28;20131;-70
2021/04/09 08:26:50;;;;;;;1999.90;999.90;;;8.10;96.80;;;;;;5064728;28;20048;-71
2021/04/09 08:29:18;;;;;;;1999.90;999.90;;;8.10;97.10;;;;;;5063386;28;20043;-71
2021/04/09 08:31:45;;;;;;;1999.90;999.90;;;8.20;96.80;;;;;;5062373;28;20049;-71
2021/04/09 08:34:13;;;;;;;1999.90;999.90;;;8.30;97.50;;;;;;5063998;28;20053;-71
2021/04/09 08:36:42;;;;;;;1999.90;999.90;;;8.40;97.00;;;;;;5062483;28;20039;-71
2021/04/09 08:39:10;;;;;;;1999.90;999.90;;;8.50;97.00;;;;;;5062447;28;20119;-71
2021/04/09 08:41:38;;;;;;;1999.90;999.90;;;8.60;96.90;;;;;;5061879;28;20040;-71
2021/04/09 08:44:09;;;;;;;1999.90;999.90;;;8.70;97.30;;;;;;5060766;28;20043;-71
2021/04/09 08:46:36;;;;;;;1999.90;999.90;;;8.80;96.90;;;;;;5062589;28;20129;-71
2021/04/09 08:49:04;;;;;;;1999.90;999.90;;;8.80;96.80;;;;;;5062352;28;20040;-72
2021/04/09 08:51:32;;;;;;;1999.90;999.90;;;8.90;97.10;;;;;;5059748;28;20071;-72
2021/04/09 08:54:28;;;;;;;1999.90;999.90;;;9.00;97.30;;;;;;5063136;28;20040;-72
2021/04/09 08:56:55;;;;;;;1999.90;999.90;;;9.00;97.20;;;;;;5059438;28;20124;-71
2021/04/09 08:59:41;;;;;;;1999.90;999.90;;;9.00;97.10;;;;;;5057446;28;20052;-71
2021/04/09 09:02:24;;;;;;;1999.90;999.90;;;9.00;97.70;;;;;;5054544;28;20048;-71
2021/04/09 09:05:33;;;;;;;1999.90;999.90;;;9.10;97.30;;;;;;5058116;28;21544;-72
2021/04/09 09:08:01;;;;;;;1999.90;999.90;;;9.20;97.40;;;;;;5060893;28;20685;-72
2021/04/09 09:10:30;;;;;;;1999.90;999.90;;;9.20;97.40;;;;;;5061318;28;20052;-72
2021/04/09 09:13:03;;;;;;;1999.90;999.90;;;9.30;97.30;;;;;;5063707;28;20058;-72
2021/04/09 09:15:42;;;;;;;1999.90;999.90;;;9.30;97.40;;;;;;5064264;28;20127;-72
2021/04/09 09:18:23;;;;;;;1999.90;999.90;;;9.40;97.40;;;;;;5063962;28;20036;-72
2021/04/09 09:21:12;;;;;;;1999.90;999.90;;;9.50;97.40;;;;;;5062682;28;20047;-72
2021/04/09 09:23:44;;;;;;;1999.90;999.90;;;9.60;97.50;;;;;;5064232;28;20148;-72
2021/04/09 09:26:32;;;;;;;1999.90;999.90;;;9.70;97.50;;;;;;5062285;28;20061;-72
2021/04/09 09:29:13;;;;;;;1999.90;999.90;;;9.80;97.70;;;;;;5064368;28;20060;-72
2021/04/09 09:31:46;;;;;;;1999.90;999.90;;;9.90;97.50;;;;;;5062483;28;20044;-73
2021/04/09 09:34:21;;;;;;;1999.90;999.90;;;10.00;97.10;;;;;;5063263;28;20136;-72
2021/04/09 09:37:18;;;;;;;1999.90;999.90;;;10.20;97.30;;;;;;5064387;28;20044;-72
2021/04/09 09:39:46;;;;;;;1999.90;999.90;;;10.20;97.00;;;;;;5062169;28;20399;-72
2021/04/09 09:42:32;;;;;;;1999.90;999.90;;;10.30;97.10;;;;;;5063117;28;20058;-72
2021/04/09 09:45:03;;;;;;;1999.90;999.90;;;10.40;97.30;;;;;;5063516;28;20045;-72
2021/04/09 09:47:41;;;;;;;1999.90;999.90;;;10.50;97.20;;;;;;5062873;28;20051;-72
2021/04/09 09:50:23;;;;;;;1999.90;999.90;;;10.60;97.10;;;;;;5062222;28;20055;-72
2021/04/09 09:53:06;;;;;;;1999.90;999.90;;;10.70;97.10;;;;;;5086291;28;20112;-72
2021/04/09 09:55:36;;;;;;;1999.90;999.90;;;10.80;96.60;;;;;;5061768;28;20319;-72
2021/04/09 09:58:26;;;;;;;1999.90;999.90;;;10.80;96.40;;;;;;5057385;28;20040;-72
2021/04/09 10:01:00;;;;;;;1999.90;999.90;;;10.80;96.30;;;;;;5057809;28;20116;-71
2021/04/09 10:03:33;;;;;;;1999.90;999.90;;;10.70;95.90;;;;;;5060077;28;20052;-72
2021/04/09 10:06:13;;;;;;;1999.90;999.90;;;10.50;95.80;;;;;;5057973;28;20064;-72
2021/04/09 10:08:58;;;;;;;1999.90;999.90;;;10.50;96.20;;;;;;5058415;28;20048;-72
2021/04/09 10:11:24;;;;;;;1999.90;999.90;;;10.40;96.00;;;;;;5054416;28;20083;-72
2021/04/09 10:13:52;;;;;;;1999.90;999.90;;;10.50;96.20;;;;;;5057346;28;20048;-73
2021/04/09 10:16:24;;;;;;;1999.90;999.90;;;10.60;96.20;;;;;;5063372;28;20040;-71
2021/04/09 10:18:56;;;;;;;1999.90;999.90;;;10.80;96.20;;;;;;5059547;28;20106;-72
2021/04/09 10:21:25;;;;;;;1999.90;999.90;;;11.00;96.50;;;;;;5057925;28;20400;-72
2021/04/09 10:24:18;;;;;;;1999.90;999.90;;;11.20;96.20;;;;;;5060323;28;20037;-73
2021/04/09 10:26:59;;;;;;;1999.90;999.90;;;11.30;96.00;;;;;;5059900;28;20367;-72
2021/04/09 10:29:33;;;;;;;1999.90;999.90;;;11.30;96.20;;;;;;5061018;28;20094;-71
2021/04/09 10:32:02;;;;;;;1999.90;999.90;;;11.40;96.10;;;;;;5061328;28;20059;-72
2021/04/09 10:34:32;;;;;;;1999.90;999.90;;;11.30;95.60;;;;;;5061845;28;20067;-72
2021/04/09 10:37:01;;;;;;;1999.90;999.90;;;11.30;95.60;;;;;;5060475;28;20059;-72
2021/04/09 10:39:27;;;;;;;1999.90;999.90;;;11.30;95.50;;;;;;5061379;28;20655;-72
2021/04/09 10:41:55;;;;;;;1999.90;999.90;;;11.40;95.80;;;;;;5060444;28;20049;-72
2021/04/09 10:44:31;;;;;;;1999.90;999.90;;;11.60;96.30;;;;;;5060122;28;20042;-72
2021/04/09 10:47:01;;;;;;;1999.90;999.90;;;11.80;96.90;;;;;;5061433;28;20049;-72
2021/04/09 10:49:39;;;;;;;1999.90;999.90;;;11.90;95.80;;;;;;5062349;28;20044;-72
2021/04/09 10:52:09;;;;;;;1999.90;999.90;;;12.00;95.90;;;;;;5061072;28;20439;-72
2021/04/09 10:54:41;;;;;;;1999.90;999.90;;;12.20;96.60;;;;;;5062365;28;20045;-72
2021/04/09 10:57:14;;;;;;;1999.90;999.90;;;12.20;96.20;;;;;;5060683;28;20052;-72
2021/04/09 10:59:42;;;;;;;1999.90;999.90;;;12.30;96.20;;;;;;5061682;28;20048;-72
2021/04/09 11:02:30;;;;;;;1999.90;999.90;;;12.40;95.80;;;;;;5061284;28;20041;-72
2021/04/09 11:04:58;;;;;;;1999.90;999.90;;;12.40;95.40;;;;;;5063542;28;20060;-72
2021/04/09 11:07:48;;;;;;;1999.90;999.90;;;12.40;95.30;;;;;;5072638;28;20483;-72
2021/04/09 11:10:34;;;;;;;1999.90;999.90;;;12.60;94.40;;;;;;5065451;28;20081;-72
2021/04/09 11:13:01;;;;;;;1999.90;999.90;;;12.80;96.40;;;;;;5064441;28;20048;-72
2021/04/09 11:15:38;;;;;;;1999.90;999.90;;;12.90;95.60;;;;;;5067735;28;20127;-72
2021/04/09 11:18:05;;;;;;;1999.90;999.90;;;12.80;93.90;;;;;;5065170;28;20047;-72
2021/04/09 11:20:34;;;;;;;1999.90;999.90;;;12.60;94.50;;;;;;5072855;28;20434;-72
2021/04/09 11:23:19;;;;;;;1999.90;999.90;;;12.40;94.50;;;;;;5068790;28;20128;-72
2021/04/09 11:25:49;;;;;;;1999.90;999.90;;;12.20;94.10;;;;;;5070120;28;20059;-72
2021/04/09 11:28:27;;;;;;;1999.90;999.90;;;12.00;94.20;;;;;;5058948;28;20493;-72
2021/04/09 11:30:58;;;;;;;1999.90;999.90;;;11.80;93.20;;;;;;5058430;28;20062;-71
2021/04/09 11:33:34;;;;;;;1999.90;999.90;;;11.60;93.80;;;;;;5060980;28;20135;-72
2021/04/09 11:36:13;;;;;;;1999.90;999.90;;;11.50;93.50;;;;;;5058371;28;20070;-72
2021/04/09 11:38:40;;;;;;;1999.90;999.90;;;11.40;93.40;;;;;;5060428;28;20052;-74
2021/04/09 11:41:24;;;;;;;1999.90;999.90;;;11.40;93.60;;;;;;5061242;28;20421;-71
2021/04/09 11:43:51;;;;;;;1999.90;999.90;;;11.30;92.90;;;;;;5063188;28;20055;-71
2021/04/09 11:46:34;;;;;;;1999.90;999.90;;;11.20;93.20;;;;;;5063416;28;20107;-70
2021/04/09 11:49:03;;;;;;;1999.90;999.90;;;11.10;92.70;;;;;;5063691;28;20045;-71
2021/04/09 11:51:29;;;;;;;1999.90;999.90;;;11.00;93.20;;;;;;5062682;28;20045;-71
2021/04/09 11:54:01;;;;;;;1999.90;999.90;;;11.10;93.50;;;;;;5064641;28;20303;-71
2021/04/09 11:56:58;;;;;;;1999.90;999.90;;;11.10;93.60;;;;;;5062250;28;20087;-71
2021/04/09 11:59:26;;;;;;;1999.90;999.90;;;11.20;93.80;;;;;;5057819;28;20454;-72
2021/04/09 12:01:53;;;;;;;1999.90;999.90;;;11.20;93.80;;;;;;5062166;28;20037;-71
2021/04/09 12:04:39;;;;;;;1999.90;999.90;;;11.20;93.70;;;;;;5063346;28;20044;-72
2021/04/09 12:07:18;;;;;;;1999.90;999.90;;;11.30;93.80;;;;;;5063512;28;20064;-72
2021/04/09 12:09:53;;;;;;;1999.90;999.90;;;11.30;93.70;;;;;;5060252;28;20053;-71
2021/04/09 12:12:21;;;;;;;1999.90;999.90;;;11.40;93.70;;;;;;5061645;28;20051;-72
2021/04/09 12:14:56;;;;;;;1999.90;999.90;;;11.40;93.70;;;;;;5063306;28;20067;-72
2021/04/09 12:17:24;;;;;;;1999.90;999.90;;;11.50;93.80;;;;;;5061868;28;20113;-71
2021/04/09 12:19:54;;;;;;;1999.90;999.90;;;11.50;93.70;;;;;;5061517;28;20048;-72
2021/04/09 12:22:22;;;;;;;1999.90;999.90;;;11.50;93.80;;;;;;5062390;28;20492;-71
2021/04/09 12:24:48;;;;;;;1999.90;999.90;;;11.70;94.40;;;;;;5064187;28;20072;-72
2021/04/09 12:27:17;;;;;;;1999.90;999.90;;;11.90;94.10;;;;;;5063447;28;20044;-71
2021/04/09 12:29:44;;;;;;;1999.90;999.90;;;12.00;94.00;;;;;;5062380;28;20845;-71
2021/04/09 12:32:10;;;;;;;1999.90;999.90;;;12.10;93.60;;;;;;5063789;28;20050;-71
2021/04/09 12:34:36;;;;;;;1999.90;999.90;;;12.20;94.00;;;;;;5063081;28;20044;-71
2021/04/09 12:37:06;;;;;;;1999.90;999.90;;;12.10;93.00;;;;;;5088113;28;20468;-71